createdAt,value
2022-12-25T00:02:11.106Z,6.67
2022-12-25T00:04:38.371Z,6.65
2022-12-25T00:07:07.793Z,6.63
2022-12-25T00:09:35.182Z,6.63
2022-12-25T00:12:02.068Z,6.58
2022-12-25T00:14:35.624Z,6.56
2022-12-25T00:17:04.794Z,6.48
2022-12-25T00:19:33.438Z,6.51
2022-12-25T00:22:00.339Z,6.50
2022-12-25T00:24:29.028Z,6.51
2022-12-25T00:26:55.999Z,6.51
2022-12-25T00:29:23.297Z,6.54
2022-12-25T00:31:50.283Z,6.55
2022-12-25T00:34:17.908Z,6.56
2022-12-25T00:36:45.049Z,6.57
2022-12-25T00:39:12.294Z,6.55
2022-12-25T00:41:59.026Z,6.58
2022-12-25T00:44:32.142Z,6.57
2022-12-25T00:46:59.291Z,6.55
2022-12-25T00:49:34.190Z,6.51
2022-12-25T00:52:04.663Z,6.49
2022-12-25T00:54:31.896Z,6.48
2022-12-25T00:57:01.364Z,6.43
2022-12-25T00:59:31.890Z,6.37
2022-12-25T01:02:21.359Z,6.36
2022-12-25T01:04:49.586Z,6.38
2022-12-25T01:07:17.054Z,6.42
2022-12-25T01:10:05.853Z,6.44
2022-12-25T01:12:40.000Z,6.42
2022-12-25T01:15:09.232Z,6.43
2022-12-25T01:17:36.227Z,6.43
2022-12-25T01:20:05.912Z,6.38
2022-12-25T01:22:34.986Z,6.39
2022-12-25T01:25:02.232Z,6.35
2022-12-25T01:27:29.043Z,6.26
2022-12-25T01:29:58.835Z,6.22
2022-12-25T01:32:25.788Z,6.17
2022-12-25T01:34:56.039Z,6.15
2022-12-25T01:37:28.392Z,6.15
2022-12-25T01:39:55.563Z,6.19
2022-12-25T01:42:24.045Z,6.20
2022-12-25T01:45:33.274Z,6.23
2022-12-25T01:48:04.718Z,6.25
2022-12-25T01:50:34.140Z,6.18
2022-12-25T01:53:00.934Z,6.18
2022-12-25T01:55:28.478Z,6.18
2022-12-25T01:57:56.014Z,6.17
2022-12-25T02:00:23.376Z,6.11
2022-12-25T02:02:51.947Z,6.14
2022-12-25T02:05:25.766Z,6.10
2022-12-25T02:07:53.743Z,6.06
2022-12-25T02:10:23.840Z,6.01
2022-12-25T02:12:51.683Z,5.99
2022-12-25T02:15:22.716Z,5.98
2022-12-25T02:18:05.804Z,5.96
2022-12-25T02:21:03.169Z,5.93
2022-12-25T02:24:07.120Z,5.88
2022-12-25T02:26:55.111Z,5.73
2022-12-25T02:29:32.631Z,5.82
2022-12-25T02:32:05.760Z,5.86
2022-12-25T02:34:38.148Z,5.88
2022-12-25T02:37:12.478Z,5.88
2022-12-25T02:40:00.746Z,5.87
2022-12-25T02:42:54.974Z,5.86
2022-12-25T02:45:47.908Z,5.82
2022-12-25T02:48:36.195Z,5.72
2022-12-25T02:51:28.822Z,5.74
2022-12-25T02:54:18.048Z,5.72
2022-12-25T02:57:04.830Z,5.72
2022-12-25T02:59:54.827Z,5.68
2022-12-25T03:02:42.988Z,5.69
2022-12-25T03:05:36.971Z,5.69
2022-12-25T03:08:12.277Z,5.69
2022-12-25T03:11:03.755Z,5.69
2022-12-25T03:13:36.413Z,5.70
2022-12-25T03:16:28.202Z,5.68
2022-12-25T03:18:58.616Z,5.71
2022-12-25T03:21:47.328Z,5.73
2022-12-25T03:24:33.199Z,5.73
2022-12-25T03:27:03.518Z,5.77
2022-12-25T03:29:51.457Z,5.74
2022-12-25T03:32:28.458Z,5.71
2022-12-25T03:35:25.816Z,5.70
2022-12-25T03:38:34.854Z,5.73
2022-12-25T03:41:27.250Z,5.72
2022-12-25T03:44:21.683Z,5.68
2022-12-25T03:47:18.510Z,5.68
2022-12-25T03:50:09.529Z,5.61
2022-12-25T03:52:58.574Z,5.57
2022-12-25T03:55:47.927Z,5.60
2022-12-25T03:58:41.313Z,5.55
2022-12-25T04:01:26.897Z,5.51
2022-12-25T04:04:13.281Z,5.46
2022-12-25T04:06:59.733Z,5.41
2022-12-25T04:09:49.455Z,5.34
2022-12-25T04:12:37.353Z,5.19
2022-12-25T04:15:23.564Z,5.09
2022-12-25T04:18:15.561Z,4.94
2022-12-25T04:21:00.973Z,4.73
2022-12-25T04:23:46.913Z,4.54
2022-12-25T04:26:34.121Z,4.25
2022-12-25T04:29:22.924Z,4.16
2022-12-25T04:32:11.205Z,4.13
2022-12-25T04:34:57.060Z,4.05
2022-12-25T04:37:24.042Z,3.81
2022-12-25T04:39:51.331Z,3.63
2022-12-25T04:42:19.728Z,3.46
2022-12-25T04:44:47.085Z,3.41
2022-12-25T04:47:14.296Z,3.31
2022-12-25T04:49:41.565Z,3.32
2022-12-25T04:52:11.832Z,3.31
2022-12-25T04:54:44.377Z,3.20
2022-12-25T04:57:11.264Z,3.11
2022-12-25T04:59:40.778Z,2.92
2022-12-25T05:02:07.831Z,2.89
2022-12-25T05:04:34.981Z,2.86
2022-12-25T05:07:01.831Z,2.73
2022-12-25T05:09:29.383Z,2.56
2022-12-25T05:11:59.934Z,2.49
2022-12-25T05:14:27.150Z,2.38
2022-12-25T05:16:55.460Z,2.14
2022-12-25T05:19:27.027Z,1.92
2022-12-25T05:21:56.394Z,1.79
2022-12-25T05:24:26.903Z,1.84
2022-12-25T05:26:53.963Z,1.89
2022-12-25T05:29:31.978Z,1.81
2022-12-25T05:32:00.314Z,1.62
2022-12-25T05:34:27.793Z,1.59
2022-12-25T05:36:56.480Z,1.50
2022-12-25T05:39:23.792Z,1.43
2022-12-25T05:41:50.870Z,1.28
2022-12-25T05:44:18.064Z,1.24
2022-12-25T05:46:49.779Z,1.18
2022-12-25T05:49:19.372Z,1.15
2022-12-25T05:51:51.795Z,1.22
2022-12-25T05:54:22.203Z,1.23
2022-12-25T05:56:51.749Z,1.25
2022-12-25T05:59:19.159Z,1.44
2022-12-25T06:01:46.659Z,1.57
2022-12-25T06:04:16.545Z,1.57
2022-12-25T06:06:44.979Z,1.52
2022-12-25T06:09:13.452Z,1.52
2022-12-25T06:11:40.842Z,1.54
2022-12-25T06:14:11.745Z,1.66
2022-12-25T06:16:44.732Z,1.71
2022-12-25T06:19:13.996Z,1.66
2022-12-25T06:21:48.815Z,1.64
2022-12-25T06:24:21.053Z,1.75
2022-12-25T06:26:48.921Z,1.87
2022-12-25T06:29:16.444Z,1.86
2022-12-25T06:31:47.704Z,1.84
2022-12-25T06:34:27.160Z,1.83
2022-12-25T06:36:57.161Z,1.81
2022-12-25T06:39:25.524Z,1.92
2022-12-25T06:41:52.564Z,1.98
2022-12-25T06:44:20.005Z,2.03
2022-12-25T06:46:50.174Z,2.01
2022-12-25T06:49:17.773Z,1.96
2022-12-25T06:51:44.633Z,1.95
2022-12-25T06:54:13.736Z,2.04
2022-12-25T06:56:40.592Z,2.08
2022-12-25T06:59:09.542Z,2.14
2022-12-25T07:01:39.978Z,2.14
2022-12-25T07:04:15.826Z,2.16
2022-12-25T07:06:42.719Z,2.22
2022-12-25T07:09:14.217Z,2.38
2022-12-25T07:11:41.191Z,2.49
2022-12-25T07:14:17.427Z,2.59
2022-12-25T07:16:51.255Z,2.64
2022-12-25T07:19:19.227Z,2.65
2022-12-25T07:21:49.160Z,2.59
2022-12-25T07:27:22.060Z,2.60
2022-12-25T07:30:07.281Z,2.70
2022-12-25T07:32:34.364Z,2.76
2022-12-25T07:35:01.526Z,2.84
2022-12-25T07:37:30.541Z,2.89
2022-12-25T07:40:02.058Z,2.91
2022-12-25T07:42:29.238Z,2.89
2022-12-25T07:44:56.437Z,2.83
2022-12-25T07:47:23.312Z,2.86
2022-12-25T07:49:50.487Z,2.99
2022-12-25T07:52:18.802Z,3.05
2022-12-25T07:54:46.038Z,3.12
2022-12-25T07:57:14.338Z,3.15
2022-12-25T07:59:41.480Z,3.23
2022-12-25T08:02:10.287Z,3.20
2022-12-25T08:04:37.334Z,3.26
2022-12-25T08:07:04.175Z,3.42
2022-12-25T08:09:31.399Z,3.40
2022-12-25T08:11:58.314Z,3.32
2022-12-25T08:14:27.132Z,3.31
2022-12-25T08:16:56.924Z,3.42
2022-12-25T08:19:24.612Z,3.47
2022-12-25T08:21:51.446Z,3.53
2022-12-25T08:24:18.843Z,3.54
2022-12-25T08:26:45.781Z,3.73
2022-12-25T08:29:13.197Z,3.87
2022-12-25T08:31:46.463Z,3.81
2022-12-25T08:34:14.149Z,3.87
2022-12-25T08:36:41.706Z,3.86
2022-12-25T08:39:08.886Z,3.97
2022-12-25T08:41:36.548Z,4.16
2022-12-25T08:44:04.526Z,4.23
2022-12-25T08:46:31.850Z,4.10
2022-12-25T08:49:00.512Z,4.14
2022-12-25T08:51:27.424Z,4.37
2022-12-25T08:54:02.593Z,4.46
2022-12-25T08:56:30.785Z,4.58
2022-12-25T08:58:58.072Z,4.84
2022-12-25T09:01:25.148Z,4.79
2022-12-25T09:03:52.501Z,4.64
2022-12-25T09:06:20.793Z,4.49
2022-12-25T09:08:59.946Z,4.42
2022-12-25T09:11:33.933Z,4.42
2022-12-25T09:14:01.246Z,4.47
2022-12-25T09:16:28.443Z,4.47
2022-12-25T09:18:58.346Z,4.51
2022-12-25T09:21:28.893Z,4.46
2022-12-25T09:23:56.213Z,4.71
2022-12-25T09:26:30.403Z,5.05
2022-12-25T09:29:00.781Z,5.16
2022-12-25T09:31:29.999Z,5.23
2022-12-25T09:33:58.655Z,5.40
2022-12-25T09:36:28.405Z,5.43
2022-12-25T09:38:56.882Z,5.21
2022-12-25T09:41:31.629Z,5.02
2022-12-25T09:44:09.226Z,5.12
2022-12-25T09:46:44.971Z,5.09
2022-12-25T09:49:20.372Z,5.17
2022-12-25T09:51:52.583Z,5.41
2022-12-25T09:54:31.244Z,5.52
2022-12-25T09:57:01.164Z,5.63
2022-12-25T09:59:30.643Z,5.53
2022-12-25T10:02:36.640Z,5.33
2022-12-25T10:05:23.448Z,5.36
2022-12-25T10:08:04.731Z,5.51
2022-12-25T10:10:49.709Z,5.92
2022-12-25T10:13:40.687Z,6.08
2022-12-25T10:16:21.010Z,6.36
2022-12-25T10:19:01.379Z,6.49
2022-12-25T10:21:28.915Z,6.53
2022-12-25T10:24:05.787Z,6.66
2022-12-25T10:26:35.640Z,6.54
2022-12-25T10:29:13.574Z,6.48
2022-12-25T10:31:47.792Z,6.30
2022-12-25T10:34:17.473Z,6.23
2022-12-25T10:36:46.363Z,6.19
2022-12-25T10:39:20.325Z,6.27
2022-12-25T10:42:09.496Z,6.40
2022-12-25T10:44:36.668Z,6.51
2022-12-25T10:47:11.574Z,6.57
2022-12-25T10:49:48.485Z,6.49
2022-12-25T10:52:20.468Z,6.60
2022-12-25T10:54:47.311Z,6.53
2022-12-25T10:57:17.699Z,6.46
2022-12-25T10:59:46.194Z,6.69
2022-12-25T11:02:21.321Z,7.11
2022-12-25T11:04:48.917Z,7.48
2022-12-25T11:07:24.239Z,7.45
2022-12-25T11:10:02.722Z,7.37
2022-12-25T11:12:38.302Z,7.25
2022-12-25T11:15:27.410Z,7.25
2022-12-25T11:17:54.663Z,7.44
2022-12-25T11:20:24.494Z,7.60
2022-12-25T11:22:54.641Z,7.94
2022-12-25T11:25:24.261Z,8.14
2022-12-25T11:28:01.438Z,8.34
2022-12-25T11:30:36.137Z,8.37
2022-12-25T11:33:12.115Z,8.37
2022-12-25T11:35:50.542Z,8.49
2022-12-25T11:38:35.906Z,8.63
2022-12-25T11:41:05.098Z,8.71
2022-12-25T11:43:49.435Z,8.64
2022-12-25T11:46:24.487Z,8.72
2022-12-25T11:49:00.594Z,8.78
2022-12-25T11:51:35.369Z,8.76
2022-12-25T11:54:16.325Z,8.78
2022-12-25T11:56:51.044Z,8.85
2022-12-25T11:59:26.583Z,8.94
2022-12-25T12:01:59.496Z,8.85
2022-12-25T12:04:42.026Z,8.95
2022-12-25T12:07:20.734Z,8.95
2022-12-25T12:09:58.124Z,8.95
2022-12-25T12:12:39.713Z,9.02
2022-12-25T12:15:21.765Z,9.08
2022-12-25T12:17:50.846Z,9.27
2022-12-25T12:20:30.494Z,9.33
2022-12-25T12:23:00.175Z,9.24
2022-12-25T12:25:28.921Z,9.32
2022-12-25T12:28:04.503Z,9.33
2022-12-25T12:30:35.699Z,9.42
2022-12-25T12:33:19.919Z,9.38
2022-12-25T12:35:50.311Z,9.55
2022-12-25T12:38:19.880Z,9.68
2022-12-25T12:40:53.907Z,9.77
2022-12-25T12:43:30.347Z,10.17
2022-12-25T12:46:09.748Z,10.24
2022-12-25T12:48:44.987Z,10.30
2022-12-25T12:51:14.431Z,10.20
2022-12-25T12:53:43.489Z,10.13
2022-12-25T12:56:13.678Z,10.15
2022-12-25T12:58:45.546Z,10.12
2022-12-25T13:01:31.048Z,10.10
2022-12-25T13:04:15.414Z,10.20
2022-12-25T13:06:47.294Z,10.30
2022-12-25T13:09:27.879Z,10.30
2022-12-25T13:11:55.334Z,10.22
2022-12-25T13:14:24.726Z,10.02
2022-12-25T13:16:54.793Z,9.86
2022-12-25T13:19:24.005Z,9.66
2022-12-25T13:21:53.663Z,9.58
2022-12-25T13:24:23.120Z,9.36
2022-12-25T13:26:54.202Z,9.26
2022-12-25T13:29:30.170Z,9.15
2022-12-25T13:32:07.396Z,9.08
2022-12-25T13:34:38.505Z,8.90
2022-12-25T13:37:08.792Z,8.91
2022-12-25T13:39:37.051Z,8.89
2022-12-25T13:42:06.972Z,8.85
2022-12-25T13:44:45.312Z,8.83
2022-12-25T13:47:23.964Z,8.75
2022-12-25T13:49:56.102Z,8.60
2022-12-25T13:52:28.601Z,8.43
2022-12-25T13:54:58.129Z,8.40
2022-12-25T13:57:33.102Z,8.25
2022-12-25T14:00:00.837Z,8.19
2022-12-25T14:02:36.619Z,8.18
2022-12-25T14:05:05.078Z,8.11
2022-12-25T14:07:35.208Z,7.91
2022-12-25T14:10:04.100Z,7.77
2022-12-25T14:12:37.254Z,7.72
2022-12-25T14:15:05.559Z,7.66
2022-12-25T14:17:34.646Z,7.60
2022-12-25T14:20:07.858Z,7.53
2022-12-25T14:22:38.520Z,7.41
2022-12-25T14:25:14.885Z,7.35
2022-12-25T14:27:49.588Z,7.37
2022-12-25T14:30:16.930Z,7.34
2022-12-25T14:32:50.916Z,7.40
2022-12-25T14:35:41.961Z,7.41
2022-12-25T14:38:20.601Z,7.35
2022-12-25T14:40:47.645Z,7.29
2022-12-25T14:43:23.516Z,7.15
2022-12-25T14:45:56.009Z,6.94
2022-12-25T14:48:26.280Z,7.06
2022-12-25T14:51:00.305Z,7.03
2022-12-25T14:53:36.155Z,7.07
2022-12-25T14:56:04.013Z,7.18
2022-12-25T14:58:34.592Z,7.27
2022-12-25T15:01:04.665Z,7.13
2022-12-25T15:03:36.947Z,6.96
2022-12-25T15:06:05.984Z,6.86
2022-12-25T15:08:35.752Z,6.79
2022-12-25T15:11:08.255Z,6.68
2022-12-25T15:13:35.394Z,6.60
2022-12-25T15:16:06.150Z,6.62
2022-12-25T15:18:45.831Z,6.68
2022-12-25T15:21:16.827Z,6.68
2022-12-25T15:23:45.365Z,6.63
2022-12-25T15:26:17.652Z,6.54
2022-12-25T15:28:45.028Z,6.44
2022-12-25T15:31:20.751Z,6.30
2022-12-25T15:33:52.909Z,6.15
2022-12-25T15:36:22.465Z,6.07
2022-12-25T15:38:50.955Z,6.07
2022-12-25T15:41:38.868Z,6.14
2022-12-25T15:44:07.443Z,6.17
2022-12-25T15:46:36.451Z,6.08
2022-12-25T15:49:11.042Z,6.00
2022-12-25T15:51:52.836Z,5.93
2022-12-25T15:54:20.147Z,5.86
2022-12-25T15:56:50.132Z,5.80
2022-12-25T15:59:20.479Z,5.70
2022-12-25T16:01:50.331Z,5.60
2022-12-25T16:04:19.396Z,5.50
2022-12-25T16:06:46.696Z,5.46
2022-12-25T16:09:15.750Z,5.46
2022-12-25T16:11:43.437Z,5.44
2022-12-25T16:14:12.112Z,5.40
2022-12-25T16:16:39.602Z,5.36
2022-12-25T16:19:07.015Z,5.42
2022-12-25T16:21:39.508Z,5.44
2022-12-25T16:24:09.538Z,5.53
2022-12-25T16:26:41.307Z,5.52
2022-12-25T16:29:11.148Z,5.45
2022-12-25T16:31:38.997Z,5.49
2022-12-25T16:34:09.904Z,5.53
2022-12-25T16:36:44.648Z,5.43
2022-12-25T16:39:17.131Z,5.39
2022-12-25T16:41:45.159Z,5.31
2022-12-25T16:44:35.292Z,5.30
2022-12-25T16:47:02.538Z,5.28
2022-12-25T16:49:30.956Z,5.20
2022-12-25T16:52:00.841Z,5.21
2022-12-25T16:54:28.376Z,5.24
2022-12-25T16:56:57.397Z,5.29
2022-12-25T16:59:27.925Z,5.29
2022-12-25T17:01:55.009Z,5.38
2022-12-25T17:04:27.998Z,5.37
2022-12-25T17:07:02.052Z,5.29
2022-12-25T17:09:31.533Z,5.27
2022-12-25T17:11:58.314Z,5.33
2022-12-25T17:14:25.577Z,5.39
2022-12-25T17:16:55.074Z,5.37
2022-12-25T17:19:23.898Z,5.24
2022-12-25T17:21:51.648Z,5.26
2022-12-25T17:24:20.637Z,5.32
2022-12-25T17:26:48.294Z,5.42
2022-12-25T17:29:22.068Z,5.54
2022-12-25T17:31:52.995Z,5.57
2022-12-25T17:34:20.215Z,5.60
2022-12-25T17:36:47.248Z,5.68
2022-12-25T17:39:14.818Z,5.68
2022-12-25T17:41:43.213Z,5.60
2022-12-25T17:44:11.492Z,5.62
2022-12-25T17:46:38.490Z,5.58
2022-12-25T17:49:05.891Z,5.63
2022-12-25T17:51:32.851Z,5.66
2022-12-25T17:54:05.341Z,5.65
2022-12-25T17:56:35.923Z,5.70
2022-12-25T17:59:10.375Z,5.75
2022-12-25T18:01:42.262Z,5.69
2022-12-25T18:04:16.515Z,5.70
2022-12-25T18:06:45.672Z,5.69
2022-12-25T18:09:13.425Z,5.59
2022-12-25T18:11:43.681Z,5.59
2022-12-25T18:14:16.081Z,5.56
2022-12-25T18:16:47.671Z,5.57
2022-12-25T18:19:16.074Z,5.55
2022-12-25T18:21:45.692Z,5.48
2022-12-25T18:24:24.181Z,5.46
2022-12-25T18:26:53.771Z,5.56
2022-12-25T18:29:22.785Z,5.65
2022-12-25T18:31:49.833Z,5.72
2022-12-25T18:34:17.214Z,5.76
2022-12-25T18:36:44.692Z,5.73
2022-12-25T18:39:13.080Z,5.66
2022-12-25T18:41:59.875Z,5.72
2022-12-25T18:44:33.731Z,5.58
2022-12-25T18:47:00.623Z,5.52
2022-12-25T18:49:28.041Z,5.39
2022-12-25T18:51:54.934Z,5.42
2022-12-25T18:54:44.598Z,5.40
2022-12-25T18:57:11.494Z,5.40
2022-12-25T18:59:41.825Z,5.38
2022-12-25T19:02:11.011Z,5.30
2022-12-25T19:04:38.434Z,5.25
2022-12-25T19:07:07.528Z,5.27
2022-12-25T19:09:47.468Z,5.28
2022-12-25T19:12:17.763Z,5.27
2022-12-25T19:14:47.591Z,5.25
2022-12-25T19:17:23.437Z,5.21
2022-12-25T19:19:53.926Z,5.24
2022-12-25T19:22:20.899Z,5.27
2022-12-25T19:24:48.084Z,5.32
2022-12-25T19:27:15.062Z,5.31
2022-12-25T19:29:48.231Z,5.41
2022-12-25T19:32:15.259Z,5.48
2022-12-25T19:34:45.882Z,5.47
2022-12-25T19:37:24.871Z,5.41
2022-12-25T19:39:52.183Z,5.27
2022-12-25T19:42:21.985Z,5.21
2022-12-25T19:44:53.284Z,5.18
2022-12-25T19:47:20.314Z,5.26
2022-12-25T19:49:52.870Z,5.38
2022-12-25T19:52:22.462Z,5.28
2022-12-25T19:54:53.195Z,5.21
2022-12-25T19:57:23.207Z,5.13
2022-12-25T19:59:51.782Z,5.14
2022-12-25T20:02:18.976Z,5.11
2022-12-25T20:04:46.680Z,5.08
2022-12-25T20:07:15.539Z,5.10
2022-12-25T20:09:46.212Z,5.11
2022-12-25T20:12:18.376Z,5.20
2022-12-25T20:14:52.562Z,5.22
2022-12-25T20:17:28.614Z,5.23
2022-12-25T20:20:00.837Z,5.20
2022-12-25T20:22:30.655Z,5.18
2022-12-25T20:24:57.774Z,5.13
2022-12-25T20:27:27.634Z,5.09
2022-12-25T20:29:56.509Z,5.06
2022-12-25T20:32:31.217Z,5.09
2022-12-25T20:34:58.389Z,5.00
2022-12-25T20:37:25.506Z,4.95
2022-12-25T20:39:52.730Z,4.85
2022-12-25T20:42:21.654Z,4.78
2022-12-25T20:44:49.182Z,4.75
2022-12-25T20:47:17.655Z,4.76
2022-12-25T20:49:46.775Z,4.78
2022-12-25T20:52:13.743Z,4.79
2022-12-25T20:54:42.467Z,4.75
2022-12-25T20:57:09.402Z,4.71
2022-12-25T20:59:40.282Z,4.69
2022-12-25T21:02:09.092Z,4.69
2022-12-25T21:05:00.502Z,4.64
2022-12-25T21:07:29.623Z,4.64
2022-12-25T21:10:00.563Z,4.71
2022-12-25T21:12:30.503Z,4.63
2022-12-25T21:14:57.878Z,4.65
2022-12-25T21:17:24.692Z,4.65
2022-12-25T21:19:51.872Z,4.68
2022-12-25T21:22:20.140Z,4.69
2022-12-25T21:24:52.086Z,4.71
2022-12-25T21:27:20.839Z,4.65
2022-12-25T21:29:48.090Z,4.71
2022-12-25T21:32:37.031Z,4.79
2022-12-25T21:35:06.191Z,4.76
2022-12-25T21:37:37.329Z,4.72
2022-12-25T21:40:08.978Z,4.62
2022-12-25T21:42:40.887Z,4.68
2022-12-25T21:45:18.300Z,4.68
2022-12-25T21:48:01.971Z,4.76
2022-12-25T21:50:49.226Z,4.82
2022-12-25T21:53:18.877Z,4.82
2022-12-25T21:55:56.852Z,4.73
2022-12-25T21:58:29.956Z,4.82
2022-12-25T22:01:01.956Z,4.88
2022-12-25T22:03:29.520Z,4.81
2022-12-25T22:06:21.127Z,4.76
2022-12-25T22:08:55.776Z,4.71
2022-12-25T22:11:46.410Z,4.69
2022-12-25T22:14:50.328Z,4.73
2022-12-25T22:17:44.381Z,4.80
2022-12-25T22:20:19.177Z,4.84
2022-12-25T22:22:46.497Z,4.79
2022-12-25T22:25:15.866Z,4.73
2022-12-25T22:27:44.205Z,4.75
2022-12-25T22:30:13.138Z,4.76
2022-12-25T22:32:40.839Z,4.87
2022-12-25T22:35:11.582Z,4.88
2022-12-25T22:37:41.288Z,4.80
2022-12-25T22:40:10.206Z,4.85
2022-12-25T22:42:42.285Z,4.88
2022-12-25T22:45:10.858Z,4.98
2022-12-25T22:47:38.273Z,5.03
2022-12-25T22:50:06.040Z,5.02
2022-12-25T22:52:33.440Z,4.93
2022-12-25T22:55:00.558Z,4.99
2022-12-25T22:57:27.796Z,4.96
2022-12-25T22:59:56.146Z,5.02
2022-12-25T23:02:26.623Z,5.05
2022-12-25T23:04:56.102Z,5.07
2022-12-25T23:07:26.010Z,5.18
2022-12-25T23:09:52.956Z,5.16
2022-12-25T23:12:38.404Z,5.15
2022-12-25T23:15:07.919Z,5.09
2022-12-25T23:17:53.881Z,5.09
2022-12-25T23:20:39.522Z,5.16
2022-12-25T23:23:25.888Z,5.23
2022-12-25T23:26:07.523Z,5.27
2022-12-25T23:28:53.760Z,5.21
2022-12-25T23:31:25.402Z,5.16
2022-12-25T23:33:52.590Z,5.16
2022-12-25T23:36:19.487Z,5.23
2022-12-25T23:38:46.579Z,5.25
2022-12-25T23:41:13.553Z,5.19
2022-12-25T23:43:41.286Z,5.26
2022-12-25T23:46:11.037Z,5.22
2022-12-25T23:48:43.531Z,5.27
2022-12-25T23:51:10.717Z,5.23
2022-12-25T23:53:38.000Z,5.23
2022-12-25T23:56:08.372Z,5.27
2022-12-25T23:58:36.264Z,5.28
